sensor_id;sensor_type;location;lat;lon;timestamp;temperature;humidity
10417;DHT22;62605;49.432;8.680;2023-08-08T00:01:39;13.50;99.90
10417;DHT22;62605;49.432;8.680;2023-08-08T00:04:08;13.40;99.90
10417;DHT22;62605;49.432;8.680;2023-08-08T00:06:37;13.30;99.90
10417;DHT22;62605;49.432;8.680;2023-08-08T00:09:06;13.40;99.90
10417;DHT22;62605;49.432;8.680;2023-08-08T00:11:34;13.40;99.90
10417;DHT22;62605;49.432;8.680;2023-08-08T00:14:09;13.40;99.90
10417;DHT22;62605;49.432;8.680;2023-08-08T00:16:40;13.40;99.90
10417;DHT22;62605;49.432;8.680;2023-08-08T00:19:08;13.40;99.90
10417;DHT22;62605;49.432;8.680;2023-08-08T00:21:36;13.40;99.90
10417;DHT22;62605;49.432;8.680;2023-08-08T00:24:09;13.40;99.90
10417;DHT22;62605;49.432;8.680;2023-08-08T00:26:36;13.40;99.90
10417;DHT22;62605;49.432;8.680;2023-08-08T00:29:03;13.40;99.90
10417;DHT22;62605;49.432;8.680;2023-08-08T00:31:32;13.40;99.90
10417;DHT22;62605;49.432;8.680;2023-08-08T00:34:00;13.50;99.90
10417;DHT22;62605;49.432;8.680;2023-08-08T00:36:28;13.50;99.90
10417;DHT22;62605;49.432;8.680;2023-08-08T00:38:56;13.50;99.90
10417;DHT22;62605;49.432;8.680;2023-08-08T00:41:39;13.50;99.90
10417;DHT22;62605;49.432;8.680;2023-08-08T00:44:06;13.50;99.90
10417;DHT22;62605;49.432;8.680;2023-08-08T00:46:33;13.40;99.90
10417;DHT22;62605;49.432;8.680;2023-08-08T00:49:01;13.50;99.90
10417;DHT22;62605;49.432;8.680;2023-08-08T00:51:34;13.40;99.90
10417;DHT22;62605;49.432;8.680;2023-08-08T00:54:02;13.40;99.90
10417;DHT22;62605;49.432;8.680;2023-08-08T00:56:32;13.40;99.90
10417;DHT22;62605;49.432;8.680;2023-08-08T00:59:02;13.40;99.90
10417;DHT22;62605;49.432;8.680;2023-08-08T01:01:29;13.40;99.90
10417;DHT22;62605;49.432;8.680;2023-08-08T01:03:56;13.30;99.90
10417;DHT22;62605;49.432;8.680;2023-08-08T01:06:31;13.40;99.90
10417;DHT22;62605;49.432;8.680;2023-08-08T01:09:05;13.40;99.90
10417;DHT22;62605;49.432;8.680;2023-08-08T01:11:38;13.40;99.90
10417;DHT22;62605;49.432;8.680;2023-08-08T01:14:07;13.30;99.90
10417;DHT22;62605;49.432;8.680;2023-08-08T01:16:43;13.30;99.90
10417;DHT22;62605;49.432;8.680;2023-08-08T01:19:23;13.20;99.90
10417;DHT22;62605;49.432;8.680;2023-08-08T01:22:00;13.20;99.90
10417;DHT22;62605;49.432;8.680;2023-08-08T01:24:36;13.10;99.90
10417;DHT22;62605;49.432;8.680;2023-08-08T01:27:04;13.10;99.90
10417;DHT22;62605;49.432;8.680;2023-08-08T01:29:32;13.10;99.90
10417;DHT22;62605;49.432;8.680;2023-08-08T01:32:00;13.10;99.90
10417;DHT22;62605;49.432;8.680;2023-08-08T01:34:38;13.00;99.90
10417;DHT22;62605;49.432;8.680;2023-08-08T01:37:24;13.10;99.90
10417;DHT22;62605;49.432;8.680;2023-08-08T01:39:55;13.00;99.90
10417;DHT22;62605;49.432;8.680;2023-08-08T01:42:25;13.00;99.90
10417;DHT22;62605;49.432;8.680;2023-08-08T01:44:53;13.00;99.90
10417;DHT22;62605;49.432;8.680;2023-08-08T01:47:20;12.90;99.90
10417;DHT22;62605;49.432;8.680;2023-08-08T01:49:50;12.90;99.90
10417;DHT22;62605;49.432;8.680;2023-08-08T01:52:23;12.90;99.90
10417;DHT22;62605;49.432;8.680;2023-08-08T01:55:19;12.80;99.90
10417;DHT22;62605;49.432;8.680;2023-08-08T01:57:47;12.80;99.90
10417;DHT22;62605;49.432;8.680;2023-08-08T02:00:19;12.70;99.90
10417;DHT22;62605;49.432;8.680;2023-08-08T02:02:51;12.80;99.90
10417;DHT22;62605;49.432;8.680;2023-08-08T02:05:40;12.80;99.90
10417;DHT22;62605;49.432;8.680;2023-08-08T02:08:13;12.70;99.90
10417;DHT22;62605;49.432;8.680;2023-08-08T02:10:49;12.70;99.90
10417;DHT22;62605;49.432;8.680;2023-08-08T02:15:49;12.60;99.90
10417;DHT22;62605;49.432;8.680;2023-08-08T02:19:17;12.60;99.90
10417;DHT22;62605;49.432;8.680;2023-08-08T02:26:54;12.50;99.90
10417;DHT22;62605;49.432;8.680;2023-08-08T02:29:27;12.50;99.90
10417;DHT22;62605;49.432;8.680;2023-08-08T02:32:09;12.50;99.90
10417;DHT22;62605;49.432;8.680;2023-08-08T02:34:47;12.50;99.90
10417;DHT22;62605;49.432;8.680;2023-08-08T02:37:24;12.50;99.90
10417;DHT22;62605;49.432;8.680;2023-08-08T02:40:09;12.50;99.90
10417;DHT22;62605;49.432;8.680;2023-08-08T02:48:57;12.50;99.90
10417;DHT22;62605;49.432;8.680;2023-08-08T02:55:19;12.50;99.90
10417;DHT22;62605;49.432;8.680;2023-08-08T02:58:06;12.50;99.90
10417;DHT22;62605;49.432;8.680;2023-08-08T03:03:20;12.60;99.90
10417;DHT22;62605;49.432;8.680;2023-08-08T03:05:57;12.60;99.90
10417;DHT22;62605;49.432;8.680;2023-08-08T03:08:50;12.70;99.90
10417;DHT22;62605;49.432;8.680;2023-08-08T03:11:40;12.70;99.90
10417;DHT22;62605;49.432;8.680;2023-08-08T03:14:08;12.70;99.90
10417;DHT22;62605;49.432;8.680;2023-08-08T03:17:08;12.70;99.90
10417;DHT22;62605;49.432;8.680;2023-08-08T03:29:01;12.70;99.90
10417;DHT22;62605;49.432;8.680;2023-08-08T03:31:29;12.70;99.90
10417;DHT22;62605;49.432;8.680;2023-08-08T03:33:59;12.70;99.90
10417;DHT22;62605;49.432;8.680;2023-08-08T03:36:27;12.60;99.90
10417;DHT22;62605;49.432;8.680;2023-08-08T03:39:02;12.60;99.90
10417;DHT22;62605;49.432;8.680;2023-08-08T03:45:33;12.60;99.90
10417;DHT22;62605;49.432;8.680;2023-08-08T03:48:10;12.60;99.90
10417;DHT22;62605;49.432;8.680;2023-08-08T03:54:12;12.70;99.90
10417;DHT22;62605;49.432;8.680;2023-08-08T03:56:55;12.80;99.90
10417;DHT22;62605;49.432;8.680;2023-08-08T03:59:46;12.80;99.90
10417;DHT22;62605;49.432;8.680;2023-08-08T04:02:33;12.80;99.90
10417;DHT22;62605;49.432;8.680;2023-08-08T04:05:33;12.70;99.90
10417;DHT22;62605;49.432;8.680;2023-08-08T04:08:43;12.80;99.90
10417;DHT22;62605;49.432;8.680;2023-08-08T04:11:24;12.70;99.90
10417;DHT22;62605;49.432;8.680;2023-08-08T04:14:26;12.70;99.90
10417;DHT22;62605;49.432;8.680;2023-08-08T04:17:07;12.60;99.90
10417;DHT22;62605;49.432;8.680;2023-08-08T04:19:53;12.70;99.90
10417;DHT22;62605;49.432;8.680;2023-08-08T04:22:38;12.60;99.90
10417;DHT22;62605;49.432;8.680;2023-08-08T04:25:07;12.60;99.90
10417;DHT22;62605;49.432;8.680;2023-08-08T04:27:49;12.60;99.90
10417;DHT22;62605;49.432;8.680;2023-08-08T04:30:18;12.70;99.90
10417;DHT22;62605;49.432;8.680;2023-08-08T04:33:05;12.60;99.90
10417;DHT22;62605;49.432;8.680;2023-08-08T04:36:12;12.60;99.90
10417;DHT22;62605;49.432;8.680;2023-08-08T04:39:04;12.60;99.90
10417;DHT22;62605;49.432;8.680;2023-08-08T04:41:57;12.50;99.90
10417;DHT22;62605;49.432;8.680;2023-08-08T04:45:07;12.60;99.90
10417;DHT22;62605;49.432;8.680;2023-08-08T04:47:43;12.70;99.90
10417;DHT22;62605;49.432;8.680;2023-08-08T04:50:32;12.80;99.90
10417;DHT22;62605;49.432;8.680;2023-08-08T04:53:10;12.80;99.90
10417;DHT22;62605;49.432;8.680;2023-08-08T04:55:40;12.70;99.90
10417;DHT22;62605;49.432;8.680;2023-08-08T04:58:29;12.80;99.90
10417;DHT22;62605;49.432;8.680;2023-08-08T05:11:20;12.90;99.90
10417;DHT22;62605;49.432;8.680;2023-08-08T05:17:22;13.00;99.90
10417;DHT22;62605;49.432;8.680;2023-08-08T05:29:32;12.90;99.90
10417;DHT22;62605;49.432;8.680;2023-08-08T05:32:05;13.00;99.90
10417;DHT22;62605;49.432;8.680;2023-08-08T05:34:33;13.10;99.90
10417;DHT22;62605;49.432;8.680;2023-08-08T05:37:00;13.20;99.90
10417;DHT22;62605;49.432;8.680;2023-08-08T05:39:27;13.20;99.90
10417;DHT22;62605;49.432;8.680;2023-08-08T05:41:54;13.30;99.90
10417;DHT22;62605;49.432;8.680;2023-08-08T05:44:21;13.40;99.90
10417;DHT22;62605;49.432;8.680;2023-08-08T05:46:49;13.50;99.90
10417;DHT22;62605;49.432;8.680;2023-08-08T05:49:16;13.60;99.90
10417;DHT22;62605;49.432;8.680;2023-08-08T05:51:43;13.50;99.90
10417;DHT22;62605;49.432;8.680;2023-08-08T05:54:10;13.60;99.90
10417;DHT22;62605;49.432;8.680;2023-08-08T05:56:40;13.80;99.90
10417;DHT22;62605;49.432;8.680;2023-08-08T05:59:07;13.80;99.90
10417;DHT22;62605;49.432;8.680;2023-08-08T06:01:34;13.90;99.90
10417;DHT22;62605;49.432;8.680;2023-08-08T06:04:03;14.00;99.90
10417;DHT22;62605;49.432;8.680;2023-08-08T06:06:30;14.10;99.90
10417;DHT22;62605;49.432;8.680;2023-08-08T06:08:57;14.20;99.90
10417;DHT22;62605;49.432;8.680;2023-08-08T06:11:23;14.20;99.90
10417;DHT22;62605;49.432;8.680;2023-08-08T06:13:50;14.20;99.90
10417;DHT22;62605;49.432;8.680;2023-08-08T06:16:17;14.30;99.90
10417;DHT22;62605;49.432;8.680;2023-08-08T06:18:45;14.40;99.90
10417;DHT22;62605;49.432;8.680;2023-08-08T06:21:14;14.50;99.90
10417;DHT22;62605;49.432;8.680;2023-08-08T06:23:41;14.50;99.90
10417;DHT22;62605;49.432;8.680;2023-08-08T06:26:08;14.60;99.90
10417;DHT22;62605;49.432;8.680;2023-08-08T06:28:36;14.70;99.90
10417;DHT22;62605;49.432;8.680;2023-08-08T06:31:03;14.70;99.90
10417;DHT22;62605;49.432;8.680;2023-08-08T06:33:30;14.70;99.90
10417;DHT22;62605;49.432;8.680;2023-08-08T06:35:57;14.90;99.90
10417;DHT22;62605;49.432;8.680;2023-08-08T06:38:26;15.00;99.90
10417;DHT22;62605;49.432;8.680;2023-08-08T06:40:53;15.00;99.90
10417;DHT22;62605;49.432;8.680;2023-08-08T06:43:21;14.90;99.90
10417;DHT22;62605;49.432;8.680;2023-08-08T06:45:48;15.00;99.90
10417;DHT22;62605;49.432;8.680;2023-08-08T06:48:15;14.90;99.90
10417;DHT22;62605;49.432;8.680;2023-08-08T06:50:43;15.00;99.90
10417;DHT22;62605;49.432;8.680;2023-08-08T06:53:09;15.10;99.90
10417;DHT22;62605;49.432;8.680;2023-08-08T06:55:38;15.30;99.90
10417;DHT22;62605;49.432;8.680;2023-08-08T06:58:05;15.30;99.90
10417;DHT22;62605;49.432;8.680;2023-08-08T07:00:32;15.30;99.90
10417;DHT22;62605;49.432;8.680;2023-08-08T07:03:00;15.40;99.90
10417;DHT22;62605;49.432;8.680;2023-08-08T07:05:27;15.60;99.90
10417;DHT22;62605;49.432;8.680;2023-08-08T07:07:54;15.60;99.90
10417;DHT22;62605;49.432;8.680;2023-08-08T07:10:22;15.70;99.90
10417;DHT22;62605;49.432;8.680;2023-08-08T07:12:50;15.80;99.90
10417;DHT22;62605;49.432;8.680;2023-08-08T07:15:17;15.80;99.90
10417;DHT22;62605;49.432;8.680;2023-08-08T07:17:44;15.90;99.90
10417;DHT22;62605;49.432;8.680;2023-08-08T07:20:11;16.00;99.90
10417;DHT22;62605;49.432;8.680;2023-08-08T07:22:41;16.00;99.90
10417;DHT22;62605;49.432;8.680;2023-08-08T07:25:08;16.10;99.90
10417;DHT22;62605;49.432;8.680;2023-08-08T07:27:37;16.20;99.90
10417;DHT22;62605;49.432;8.680;2023-08-08T07:30:06;16.30;99.90
10417;DHT22;62605;49.432;8.680;2023-08-08T07:32:34;16.50;99.90
10417;DHT22;62605;49.432;8.680;2023-08-08T07:35:01;16.40;99.90
10417;DHT22;62605;49.432;8.680;2023-08-08T07:37:31;16.60;99.90
10417;DHT22;62605;49.432;8.680;2023-08-08T07:39:58;16.60;99.90
10417;DHT22;62605;49.432;8.680;2023-08-08T07:42:26;16.80;99.90
10417;DHT22;62605;49.432;8.680;2023-08-08T07:44:53;16.90;99.90
10417;DHT22;62605;49.432;8.680;2023-08-08T07:47:21;17.00;99.90
10417;DHT22;62605;49.432;8.680;2023-08-08T07:49:48;17.10;99.90
10417;DHT22;62605;49.432;8.680;2023-08-08T07:52:15;17.20;99.90
10417;DHT22;62605;49.432;8.680;2023-08-08T07:54:42;17.40;99.90
10417;DHT22;62605;49.432;8.680;2023-08-08T07:57:09;17.70;99.90
10417;DHT22;62605;49.432;8.680;2023-08-08T07:59:37;17.90;99.90
10417;DHT22;62605;49.432;8.680;2023-08-08T08:02:04;17.80;99.90
10417;DHT22;62605;49.432;8.680;2023-08-08T08:04:34;17.90;99.90
10417;DHT22;62605;49.432;8.680;2023-08-08T08:07:01;18.10;99.90
10417;DHT22;62605;49.432;8.680;2023-08-08T08:09:28;18.20;99.90
10417;DHT22;62605;49.432;8.680;2023-08-08T08:11:56;18.10;99.90
10417;DHT22;62605;49.432;8.680;2023-08-08T08:14:23;18.50;99.90
10417;DHT22;62605;49.432;8.680;2023-08-08T08:16:51;18.20;99.90
10417;DHT22;62605;49.432;8.680;2023-08-08T08:19:18;18.20;99.90
10417;DHT22;62605;49.432;8.680;2023-08-08T08:21:47;18.50;99.90
10417;DHT22;62605;49.432;8.680;2023-08-08T08:24:14;18.60;99.90
10417;DHT22;62605;49.432;8.680;2023-08-08T08:26:41;18.80;99.90
10417;DHT22;62605;49.432;8.680;2023-08-08T08:29:08;18.70;99.90
10417;DHT22;62605;49.432;8.680;2023-08-08T08:31:35;18.90;99.90
10417;DHT22;62605;49.432;8.680;2023-08-08T08:34:04;18.60;99.90
10417;DHT22;62605;49.432;8.680;2023-08-08T08:36:31;18.40;99.90
10417;DHT22;62605;49.432;8.680;2023-08-08T08:38:59;18.70;99.90
10417;DHT22;62605;49.432;8.680;2023-08-08T08:41:28;18.80;99.90
10417;DHT22;62605;49.432;8.680;2023-08-08T08:43:55;18.90;99.90
10417;DHT22;62605;49.432;8.680;2023-08-08T08:46:22;19.00;99.90
10417;DHT22;62605;49.432;8.680;2023-08-08T08:48:52;19.20;99.90
10417;DHT22;62605;49.432;8.680;2023-08-08T08:51:26;18.90;99.90
10417;DHT22;62605;49.432;8.680;2023-08-08T08:54:00;19.10;99.90
10417;DHT22;62605;49.432;8.680;2023-08-08T08:56:27;19.00;99.90
10417;DHT22;62605;49.432;8.680;2023-08-08T08:58:55;19.00;99.90
10417;DHT22;62605;49.432;8.680;2023-08-08T09:01:23;19.20;99.90
10417;DHT22;62605;49.432;8.680;2023-08-08T09:04:07;19.00;99.90
10417;DHT22;62605;49.432;8.680;2023-08-08T09:06:38;19.30;99.90
10417;DHT22;62605;49.432;8.680;2023-08-08T09:09:07;19.10;99.90
10417;DHT22;62605;49.432;8.680;2023-08-08T09:11:35;18.90;99.90
10417;DHT22;62605;49.432;8.680;2023-08-08T09:14:15;19.00;99.90
10417;DHT22;62605;49.432;8.680;2023-08-08T09:16:43;19.20;99.90
10417;DHT22;62605;49.432;8.680;2023-08-08T09:19:10;19.50;99.90
10417;DHT22;62605;49.432;8.680;2023-08-08T09:21:37;19.30;99.90
10417;DHT22;62605;49.432;8.680;2023-08-08T09:24:04;19.40;1.00
10417;DHT22;62605;49.432;8.680;2023-08-08T09:26:36;19.60;1.00
10417;DHT22;62605;49.432;8.680;2023-08-08T09:29:04;19.70;1.00
10417;DHT22;62605;49.432;8.680;2023-08-08T09:31:33;19.70;1.00
10417;DHT22;62605;49.432;8.680;2023-08-08T09:34:02;19.70;1.00
10417;DHT22;62605;49.432;8.680;2023-08-08T09:36:29;19.70;1.00
10417;DHT22;62605;49.432;8.680;2023-08-08T09:39:00;19.50;1.00
10417;DHT22;62605;49.432;8.680;2023-08-08T09:41:28;19.20;99.90
10417;DHT22;62605;49.432;8.680;2023-08-08T09:43:59;19.20;99.90
10417;DHT22;62605;49.432;8.680;2023-08-08T09:46:29;19.60;99.90
10417;DHT22;62605;49.432;8.680;2023-08-08T09:48:56;19.80;99.90
10417;DHT22;62605;49.432;8.680;2023-08-08T09:51:24;19.90;99.90
10417;DHT22;62605;49.432;8.680;2023-08-08T09:53:53;19.90;99.90
10417;DHT22;62605;49.432;8.680;2023-08-08T09:56:22;19.90;99.90
10417;DHT22;62605;49.432;8.680;2023-08-08T09:58:49;19.40;99.90
10417;DHT22;62605;49.432;8.680;2023-08-08T10:01:19;19.80;99.90
10417;DHT22;62605;49.432;8.680;2023-08-08T10:03:47;20.10;99.90
10417;DHT22;62605;49.432;8.680;2023-08-08T10:06:15;20.10;99.90
10417;DHT22;62605;49.432;8.680;2023-08-08T10:08:43;20.20;99.90
10417;DHT22;62605;49.432;8.680;2023-08-08T10:11:10;20.10;99.90
10417;DHT22;62605;49.432;8.680;2023-08-08T10:13:47;20.40;99.90
10417;DHT22;62605;49.432;8.680;2023-08-08T10:16:15;20.60;99.90
10417;DHT22;62605;49.432;8.680;2023-08-08T10:18:44;21.10;99.90
10417;DHT22;62605;49.432;8.680;2023-08-08T10:21:12;20.80;99.90
10417;DHT22;62605;49.432;8.680;2023-08-08T10:23:39;21.00;99.90
10417;DHT22;62605;49.432;8.680;2023-08-08T10:26:18;20.90;99.90
10417;DHT22;62605;49.432;8.680;2023-08-08T10:28:54;20.40;99.90
10417;DHT22;62605;49.432;8.680;2023-08-08T10:31:22;20.50;99.90
10417;DHT22;62605;49.432;8.680;2023-08-08T10:34:03;20.80;99.90
10417;DHT22;62605;49.432;8.680;2023-08-08T10:36:48;20.60;99.90
10417;DHT22;62605;49.432;8.680;2023-08-08T10:39:16;20.70;99.90
10417;DHT22;62605;49.432;8.680;2023-08-08T10:41:46;20.60;99.90
10417;DHT22;62605;49.432;8.680;2023-08-08T10:44:13;20.70;99.90
10417;DHT22;62605;49.432;8.680;2023-08-08T10:46:41;20.70;99.90
10417;DHT22;62605;49.432;8.680;2023-08-08T10:49:12;20.70;99.90
10417;DHT22;62605;49.432;8.680;2023-08-08T10:51:42;20.60;99.90
10417;DHT22;62605;49.432;8.680;2023-08-08T10:54:14;20.60;99.90
10417;DHT22;62605;49.432;8.680;2023-08-08T10:56:47;20.80;99.90
10417;DHT22;62605;49.432;8.680;2023-08-08T10:59:17;20.80;99.90
10417;DHT22;62605;49.432;8.680;2023-08-08T11:01:47;20.90;99.90
10417;DHT22;62605;49.432;8.680;2023-08-08T11:04:18;21.20;99.90
10417;DHT22;62605;49.432;8.680;2023-08-08T11:06:47;21.00;99.90
10417;DHT22;62605;49.432;8.680;2023-08-08T11:09:16;21.10;99.90
10417;DHT22;62605;49.432;8.680;2023-08-08T11:11:44;20.80;99.90
10417;DHT22;62605;49.432;8.680;2023-08-08T11:14:15;21.20;99.90
10417;DHT22;62605;49.432;8.680;2023-08-08T11:16:43;21.50;99.90
10417;DHT22;62605;49.432;8.680;2023-08-08T11:19:11;21.30;96.80
10417;DHT22;62605;49.432;8.680;2023-08-08T11:21:41;21.40;89.40
10417;DHT22;62605;49.432;8.680;2023-08-08T11:24:09;21.20;66.70
10417;DHT22;62605;49.432;8.680;2023-08-08T11:26:37;21.20;53.10
10417;DHT22;62605;49.432;8.680;2023-08-08T11:29:10;21.20;47.20
10417;DHT22;62605;49.432;8.680;2023-08-08T11:31:37;21.30;35.10
10417;DHT22;62605;49.432;8.680;2023-08-08T11:34:05;21.30;39.90
10417;DHT22;62605;49.432;8.680;2023-08-08T11:36:33;21.60;50.10
10417;DHT22;62605;49.432;8.680;2023-08-08T11:39:04;21.90;54.40
10417;DHT22;62605;49.432;8.680;2023-08-08T11:41:34;22.00;37.90
10417;DHT22;62605;49.432;8.680;2023-08-08T11:44:02;21.70;6.40
10417;DHT22;62605;49.432;8.680;2023-08-08T11:46:29;21.50;1.00
10417;DHT22;62605;49.432;8.680;2023-08-08T11:49:03;21.50;1.00
10417;DHT22;62605;49.432;8.680;2023-08-08T11:51:32;21.40;1.00
10417;DHT22;62605;49.432;8.680;2023-08-08T11:54:03;21.50;1.00
10417;DHT22;62605;49.432;8.680;2023-08-08T11:56:33;21.70;1.00
10417;DHT22;62605;49.432;8.680;2023-08-08T11:59:00;22.00;1.00
10417;DHT22;62605;49.432;8.680;2023-08-08T12:01:27;22.00;1.00
10417;DHT22;62605;49.432;8.680;2023-08-08T12:03:54;22.00;1.00
10417;DHT22;62605;49.432;8.680;2023-08-08T12:06:22;22.20;1.00
10417;DHT22;62605;49.432;8.680;2023-08-08T12:08:49;22.20;1.00
10417;DHT22;62605;49.432;8.680;2023-08-08T12:11:17;22.10;1.00
10417;DHT22;62605;49.432;8.680;2023-08-08T12:13:46;22.00;1.00
10417;DHT22;62605;49.432;8.680;2023-08-08T12:16:14;22.20;1.00
10417;DHT22;62605;49.432;8.680;2023-08-08T12:18:41;22.60;1.00
10417;DHT22;62605;49.432;8.680;2023-08-08T12:21:09;22.60;1.00
10417;DHT22;62605;49.432;8.680;2023-08-08T12:23:36;22.60;1.00
10417;DHT22;62605;49.432;8.680;2023-08-08T12:26:04;22.40;1.00
10417;DHT22;62605;49.432;8.680;2023-08-08T12:28:33;22.50;1.00
10417;DHT22;62605;49.432;8.680;2023-08-08T12:31:00;22.10;1.00
10417;DHT22;62605;49.432;8.680;2023-08-08T12:33:27;22.10;1.00
10417;DHT22;62605;49.432;8.680;2023-08-08T12:35:54;21.90;1.00
10417;DHT22;62605;49.432;8.680;2023-08-08T12:38:21;22.00;1.00
10417;DHT22;62605;49.432;8.680;2023-08-08T12:40:48;22.30;1.00
10417;DHT22;62605;49.432;8.680;2023-08-08T12:43:16;22.30;1.00
10417;DHT22;62605;49.432;8.680;2023-08-08T12:45:45;22.50;1.00
10417;DHT22;62605;49.432;8.680;2023-08-08T12:48:13;22.60;1.00
10417;DHT22;62605;49.432;8.680;2023-08-08T12:50:40;22.70;1.00
10417;DHT22;62605;49.432;8.680;2023-08-08T12:53:08;22.40;1.00
10417;DHT22;62605;49.432;8.680;2023-08-08T12:55:35;22.10;1.00
10417;DHT22;62605;49.432;8.680;2023-08-08T12:58:03;22.20;1.00
10417;DHT22;62605;49.432;8.680;2023-08-08T13:00:36;21.80;1.00
10417;DHT22;62605;49.432;8.680;2023-08-08T13:03:06;21.90;1.00
10417;DHT22;62605;49.432;8.680;2023-08-08T13:05:34;21.90;1.00
10417;DHT22;62605;49.432;8.680;2023-08-08T13:08:04;22.40;1.00
10417;DHT22;62605;49.432;8.680;2023-08-08T13:10:31;22.80;1.00
10417;DHT22;62605;49.432;8.680;2023-08-08T13:12:58;23.40;1.00
10417;DHT22;62605;49.432;8.680;2023-08-08T13:15:25;23.40;1.00
10417;DHT22;62605;49.432;8.680;2023-08-08T13:17:53;23.20;1.00
10417;DHT22;62605;49.432;8.680;2023-08-08T13:20:21;22.90;1.00
10417;DHT22;62605;49.432;8.680;2023-08-08T13:22:48;23.20;1.00
10417;DHT22;62605;49.432;8.680;2023-08-08T13:25:15;22.60;1.00
10417;DHT22;62605;49.432;8.680;2023-08-08T13:27:44;22.40;1.00
10417;DHT22;62605;49.432;8.680;2023-08-08T13:30:12;22.40;1.00
10417;DHT22;62605;49.432;8.680;2023-08-08T13:32:41;22.40;1.00
10417;DHT22;62605;49.432;8.680;2023-08-08T13:35:08;22.20;1.00
10417;DHT22;62605;49.432;8.680;2023-08-08T13:37:37;22.20;1.00
10417;DHT22;62605;49.432;8.680;2023-08-08T13:40:05;22.30;1.00
10417;DHT22;62605;49.432;8.680;2023-08-08T13:42:32;22.10;1.00
10417;DHT22;62605;49.432;8.680;2023-08-08T13:44:59;22.30;1.00
10417;DHT22;62605;49.432;8.680;2023-08-08T13:47:26;22.40;1.00
10417;DHT22;62605;49.432;8.680;2023-08-08T13:49:53;22.70;1.00
10417;DHT22;62605;49.432;8.680;2023-08-08T13:52:20;22.60;1.00
10417;DHT22;62605;49.432;8.680;2023-08-08T13:54:49;22.30;1.00
10417;DHT22;62605;49.432;8.680;2023-08-08T13:57:17;22.50;1.00
10417;DHT22;62605;49.432;8.680;2023-08-08T13:59:44;22.50;1.00
10417;DHT22;62605;49.432;8.680;2023-08-08T14:02:12;22.40;1.00
10417;DHT22;62605;49.432;8.680;2023-08-08T14:04:38;23.00;1.00
10417;DHT22;62605;49.432;8.680;2023-08-08T14:07:06;22.90;1.00
10417;DHT22;62605;49.432;8.680;2023-08-08T14:09:33;23.10;1.00
10417;DHT22;62605;49.432;8.680;2023-08-08T14:12:01;23.00;1.00
10417;DHT22;62605;49.432;8.680;2023-08-08T14:14:29;23.00;1.00
10417;DHT22;62605;49.432;8.680;2023-08-08T14:16:56;22.90;1.00
10417;DHT22;62605;49.432;8.680;2023-08-08T14:19:23;22.70;1.00
10417;DHT22;62605;49.432;8.680;2023-08-08T14:21:50;22.40;1.00
10417;DHT22;62605;49.432;8.680;2023-08-08T14:24:17;22.40;1.00
10417;DHT22;62605;49.432;8.680;2023-08-08T14:26:44;22.10;1.00
10417;DHT22;62605;49.432;8.680;2023-08-08T14:29:12;22.10;1.00
10417;DHT22;62605;49.432;8.680;2023-08-08T14:31:40;22.20;1.00
10417;DHT22;62605;49.432;8.680;2023-08-08T14:34:07;22.20;1.00
10417;DHT22;62605;49.432;8.680;2023-08-08T14:36:34;22.10;1.00
10417;DHT22;62605;49.432;8.680;2023-08-08T14:39:01;22.40;1.00
10417;DHT22;62605;49.432;8.680;2023-08-08T14:41:28;22.40;1.00
10417;DHT22;62605;49.432;8.680;2023-08-08T14:43:56;22.60;1.00
10417;DHT22;62605;49.432;8.680;2023-08-08T14:46:24;22.80;1.00
10417;DHT22;62605;49.432;8.680;2023-08-08T14:48:51;22.90;1.00
10417;DHT22;62605;49.432;8.680;2023-08-08T14:51:18;23.00;1.00
10417;DHT22;62605;49.432;8.680;2023-08-08T14:53:45;22.50;99.90
10417;DHT22;62605;49.432;8.680;2023-08-08T14:56:12;22.20;99.90
10417;DHT22;62605;49.432;8.680;2023-08-08T14:58:39;21.90;99.90
10417;DHT22;62605;49.432;8.680;2023-08-08T15:01:06;21.70;99.90
10417;DHT22;62605;49.432;8.680;2023-08-08T15:03:35;21.60;99.90
10417;DHT22;62605;49.432;8.680;2023-08-08T15:06:02;21.50;99.90
10417;DHT22;62605;49.432;8.680;2023-08-08T15:08:29;21.40;99.90
10417;DHT22;62605;49.432;8.680;2023-08-08T15:10:56;21.10;99.90
10417;DHT22;62605;49.432;8.680;2023-08-08T15:13:25;21.10;99.90
10417;DHT22;62605;49.432;8.680;2023-08-08T15:15:52;21.00;99.90
10417;DHT22;62605;49.432;8.680;2023-08-08T15:18:19;20.90;99.90
10417;DHT22;62605;49.432;8.680;2023-08-08T15:20:47;20.90;99.90
10417;DHT22;62605;49.432;8.680;2023-08-08T15:23:15;20.90;99.90
10417;DHT22;62605;49.432;8.680;2023-08-08T15:25:42;20.80;99.90
10417;DHT22;62605;49.432;8.680;2023-08-08T15:28:09;20.70;99.90
10417;DHT22;62605;49.432;8.680;2023-08-08T15:30:37;20.70;99.90
10417;DHT22;62605;49.432;8.680;2023-08-08T15:33:04;20.70;99.90
10417;DHT22;62605;49.432;8.680;2023-08-08T15:35:31;20.70;99.90
10417;DHT22;62605;49.432;8.680;2023-08-08T15:37:59;20.70;99.90
10417;DHT22;62605;49.432;8.680;2023-08-08T15:40:29;20.70;99.90
10417;DHT22;62605;49.432;8.680;2023-08-08T15:42:56;20.60;99.90
10417;DHT22;62605;49.432;8.680;2023-08-08T15:45:23;20.60;99.90
10417;DHT22;62605;49.432;8.680;2023-08-08T15:47:50;20.70;99.90
10417;DHT22;62605;49.432;8.680;2023-08-08T15:50:18;20.70;99.90
10417;DHT22;62605;49.432;8.680;2023-08-08T15:52:45;20.90;99.90
10417;DHT22;62605;49.432;8.680;2023-08-08T15:55:14;20.80;99.90
10417;DHT22;62605;49.432;8.680;2023-08-08T15:58:19;20.80;99.90
10417;DHT22;62605;49.432;8.680;2023-08-08T16:00:46;20.70;99.90
10417;DHT22;62605;49.432;8.680;2023-08-08T16:03:13;20.70;99.90
10417;DHT22;62605;49.432;8.680;2023-08-08T16:05:41;20.70;99.90
10417;DHT22;62605;49.432;8.680;2023-08-08T16:08:08;20.70;99.90
10417;DHT22;62605;49.432;8.680;2023-08-08T16:10:36;20.70;99.90
10417;DHT22;62605;49.432;8.680;2023-08-08T16:13:03;20.70;99.90
10417;DHT22;62605;49.432;8.680;2023-08-08T16:15:30;20.70;99.90
10417;DHT22;62605;49.432;8.680;2023-08-08T16:17:57;20.70;99.90
10417;DHT22;62605;49.432;8.680;2023-08-08T16:20:24;20.70;99.90
10417;DHT22;62605;49.432;8.680;2023-08-08T16:22:51;20.60;99.90
10417;DHT22;62605;49.432;8.680;2023-08-08T16:25:18;20.60;99.90
10417;DHT22;62605;49.432;8.680;2023-08-08T16:27:47;20.60;99.90
10417;DHT22;62605;49.432;8.680;2023-08-08T16:30:14;20.50;99.90
10417;DHT22;62605;49.432;8.680;2023-08-08T16:32:41;20.50;99.90
10417;DHT22;62605;49.432;8.680;2023-08-08T16:35:08;20.40;99.90
10417;DHT22;62605;49.432;8.680;2023-08-08T16:37:36;20.40;99.90
10417;DHT22;62605;49.432;8.680;2023-08-08T16:40:03;20.30;99.90
10417;DHT22;62605;49.432;8.680;2023-08-08T16:42:30;20.30;99.90
10417;DHT22;62605;49.432;8.680;2023-08-08T16:44:59;20.30;99.90
10417;DHT22;62605;49.432;8.680;2023-08-08T16:47:26;20.20;99.90
10417;DHT22;62605;49.432;8.680;2023-08-08T16:49:53;20.20;99.90
10417;DHT22;62605;49.432;8.680;2023-08-08T16:52:21;20.20;99.90
10417;DHT22;62605;49.432;8.680;2023-08-08T16:54:48;20.10;99.90
10417;DHT22;62605;49.432;8.680;2023-08-08T16:57:15;20.00;99.90